createdAt,value
2018-09-23T00:09:18.588Z,5.2
2018-09-23T00:24:18.471Z,4
2018-09-23T00:39:30.449Z,3.1
2018-09-23T01:14:30.826Z,1.9
2018-09-23T01:29:32.460Z,1.9
2018-09-23T01:49:32.515Z,1.3
2018-09-23T02:04:32.701Z,1.5
2018-09-23T02:19:44.501Z,1.9
2018-09-23T02:34:44.462Z,1.4
2018-09-23T03:09:56.969Z,1.6
2018-09-23T03:24:56.993Z,2.1
2018-09-23T03:45:09.148Z,1.6
2018-09-23T04:00:09.121Z,2
2018-09-23T04:15:08.956Z,1.8
2018-09-23T04:30:09.129Z,2.2
2018-09-23T04:50:21.862Z,2.5
2018-09-23T05:05:21.747Z,2.8
2018-09-23T05:20:21.793Z,2.1
2018-09-23T05:55:53.999Z,3.1
2018-09-23T06:10:53.959Z,2.3
2018-09-23T06:25:53.995Z,1.8
2018-09-23T06:46:06.998Z,2.4
2018-09-23T07:01:06.773Z,2.2
2018-09-23T07:16:07.013Z,2.1
2018-09-23T07:36:07.033Z,1.9
2018-09-23T07:51:21.081Z,2.5
2018-09-23T08:06:20.991Z,2.1
2018-09-23T08:21:21.681Z,3.5
2018-09-23T08:41:33.819Z,3.8
2018-09-23T08:56:33.769Z,3.8
2018-09-23T09:31:51.873Z,2.2
2018-09-23T10:01:51.947Z,2.4
2018-09-23T10:17:04.050Z,1.4
2018-09-23T10:37:04.319Z,1.7
2018-09-23T11:27:18.081Z,1.6
2018-09-23T11:42:30.341Z,2.5
2018-09-23T11:57:30.192Z,2
2018-09-23T12:12:30.282Z,1.7
2018-09-23T12:32:32.504Z,2.1
2018-09-23T12:47:31.106Z,3.1
2018-09-23T13:02:32.707Z,2.1
2018-09-23T13:22:30.817Z,2.5
2018-09-23T13:37:47.481Z,2.4
2018-09-23T13:52:46.734Z,2
2018-09-23T14:12:46.574Z,2.1
2018-09-23T14:43:00.636Z,3.2
2018-09-23T14:58:01.833Z,3
2018-09-23T15:18:00.558Z,2.8
2018-09-23T16:08:16.105Z,4.8
2018-09-23T16:23:31.552Z,4.8
2018-09-23T16:38:31.781Z,5.5
2018-09-23T16:58:33.153Z,8.7
2018-09-23T17:13:33.056Z,9
2018-09-23T17:28:47.563Z,9.8
2018-09-23T17:43:47.385Z,7.1
2018-09-23T18:19:03.191Z,7.7
2018-09-23T18:34:03.185Z,10.2
2018-09-23T18:54:03.635Z,7.1
2018-09-23T19:09:03.063Z,8
2018-09-23T19:24:16.886Z,3.3
2018-09-23T19:39:16.527Z,2.1
2018-09-23T19:59:17.691Z,2.8
2018-09-23T20:14:31.831Z,3.2
2018-09-23T20:29:31.806Z,1.9
2018-09-23T20:49:31.812Z,1.3
2018-09-23T21:04:31.601Z,1.9
2018-09-23T21:19:44.417Z,1.9
2018-09-23T21:34:44.149Z,1.7
2018-09-23T21:54:44.850Z,1.2
2018-09-23T22:09:57.130Z,1.2
2018-09-23T22:24:57.002Z,1.3
2018-09-23T22:44:57.170Z,1.8
2018-09-23T22:59:56.989Z,1.1
2018-09-23T23:15:09.653Z,1.2
2018-09-23T23:30:09.389Z,1.4
2018-09-23T23:50:09.635Z,1
